createdAt,value
2023-04-22T00:00:48.423Z,1016.36
2023-04-22T00:01:48.591Z,1016.36
2023-04-22T00:02:48.887Z,1016.35
2023-04-22T00:03:49.211Z,1016.34
2023-04-22T00:04:49.326Z,1016.34
2023-04-22T00:05:49.384Z,1016.28
2023-04-22T00:06:49.507Z,1016.30
2023-04-22T00:07:49.690Z,1016.32
2023-04-22T00:08:49.876Z,1016.29
2023-04-22T00:09:50.044Z,1016.22
2023-04-22T00:10:50.210Z,1016.24
2023-04-22T00:11:50.384Z,1016.21
2023-04-22T00:12:50.556Z,1016.22
2023-04-22T00:13:50.741Z,1016.19
2023-04-22T00:14:50.919Z,1016.18
2023-04-22T00:15:51.173Z,1016.14
2023-04-22T00:16:51.249Z,1016.14
2023-04-22T00:17:51.460Z,1016.12
2023-04-22T00:18:51.637Z,1016.11
2023-04-22T00:19:51.803Z,1016.10
2023-04-22T00:20:51.969Z,1016.07
2023-04-22T00:21:52.141Z,1016.09
2023-04-22T00:22:52.317Z,1016.04
2023-04-22T00:23:52.491Z,1016.06
2023-04-22T00:24:52.673Z,1016.07
2023-04-22T00:25:52.824Z,1016.05
2023-04-22T00:26:52.989Z,1015.99
2023-04-22T00:27:53.166Z,1015.98
2023-04-22T00:28:53.345Z,1016.01
2023-04-22T00:29:53.484Z,1015.98
2023-04-22T00:30:53.720Z,1015.94
2023-04-22T00:31:53.897Z,1015.96
2023-04-22T00:32:54.012Z,1015.96
2023-04-22T00:33:54.200Z,1015.93
2023-04-22T00:34:54.358Z,1015.95
2023-04-22T00:35:54.533Z,1015.99
2023-04-22T00:36:54.704Z,1015.94
2023-04-22T00:37:54.866Z,1016.00
2023-04-22T00:38:55.097Z,1015.95
2023-04-22T00:39:55.211Z,1015.91
2023-04-22T00:40:55.384Z,1015.92
2023-04-22T00:41:55.549Z,1015.95
2023-04-22T00:42:55.712Z,1015.94
2023-04-22T00:43:55.891Z,1015.90
2023-04-22T00:44:56.062Z,1015.88
2023-04-22T00:45:56.224Z,1015.88
2023-04-22T00:46:56.437Z,1015.90
2023-04-22T00:47:56.639Z,1015.88
2023-04-22T00:48:56.769Z,1015.91
2023-04-22T00:49:56.892Z,1015.88
2023-04-22T00:50:57.056Z,1015.85
2023-04-22T00:51:57.230Z,1015.86
2023-04-22T00:52:57.407Z,1015.87
2023-04-22T00:53:57.594Z,1015.84
2023-04-22T00:54:57.776Z,1015.83
2023-04-22T00:55:57.925Z,1015.84
2023-04-22T00:56:58.103Z,1015.85
2023-04-22T00:57:58.267Z,1015.84
2023-04-22T00:58:58.473Z,1015.81
2023-04-22T00:59:58.588Z,1015.78
2023-04-22T01:00:58.830Z,1015.82
2023-04-22T01:01:58.991Z,1015.77
2023-04-22T01:02:59.451Z,1015.79
2023-04-22T01:03:59.713Z,1015.76
2023-04-22T01:04:59.465Z,1015.76
2023-04-22T01:05:59.657Z,1015.73
2023-04-22T01:06:59.803Z,1015.76
2023-04-22T01:07:59.972Z,1015.71
2023-04-22T01:09:00.214Z,1015.71
2023-04-22T01:10:00.375Z,1015.73
2023-04-22T01:11:00.484Z,1015.71
2023-04-22T01:12:00.649Z,1015.68
2023-04-22T01:13:00.820Z,1015.74
2023-04-22T01:14:01.029Z,1015.73
2023-04-22T01:15:03.729Z,1015.69
2023-04-22T01:16:01.359Z,1015.68
2023-04-22T01:17:01.605Z,1015.69
2023-04-22T01:18:01.748Z,1015.71
2023-04-22T01:19:01.905Z,1015.68
2023-04-22T01:20:02.057Z,1015.68
2023-04-22T01:21:02.234Z,1015.67
2023-04-22T01:22:02.392Z,1015.67
2023-04-22T01:23:02.581Z,1015.67
2023-04-22T01:24:02.826Z,1015.64
2023-04-22T01:25:02.914Z,1015.70
2023-04-22T01:26:03.083Z,1015.68
2023-04-22T01:27:03.256Z,1015.62
2023-04-22T01:28:03.431Z,1015.66
2023-04-22T01:29:03.611Z,1015.59
2023-04-22T01:30:03.790Z,1015.60
2023-04-22T01:31:03.939Z,1015.61
2023-04-22T01:32:04.155Z,1015.60
2023-04-22T01:33:04.301Z,1015.58
2023-04-22T01:34:04.472Z,1015.58
2023-04-22T01:35:04.626Z,1015.56
2023-04-22T01:36:04.799Z,1015.56
2023-04-22T01:37:04.964Z,1015.55
2023-04-22T01:38:05.134Z,1015.57
2023-04-22T01:39:05.313Z,1015.57
2023-04-22T01:40:05.498Z,1015.55
2023-04-22T01:41:05.654Z,1015.55
2023-04-22T01:42:05.821Z,1015.56
2023-04-22T01:43:06.001Z,1015.57
2023-04-22T01:44:06.185Z,1015.57
2023-04-22T01:45:06.353Z,1015.58
2023-04-22T01:46:06.540Z,1015.56
2023-04-22T01:47:06.680Z,1015.58
2023-04-22T01:48:06.941Z,1015.57
2023-04-22T01:49:07.033Z,1015.54
2023-04-22T01:50:07.261Z,1015.54
2023-04-22T01:51:07.383Z,1015.50
2023-04-22T01:52:07.553Z,1015.51
2023-04-22T01:53:07.727Z,1015.50
2023-04-22T01:54:07.909Z,1015.46
2023-04-22T01:55:08.078Z,1015.44
2023-04-22T01:56:08.250Z,1015.45
2023-04-22T01:57:08.417Z,1015.45
2023-04-22T01:58:08.587Z,1015.47
2023-04-22T01:59:08.788Z,1015.45
2023-04-22T02:00:08.933Z,1015.40
2023-04-22T02:01:09.140Z,1015.40
2023-04-22T02:02:09.329Z,1015.41
2023-04-22T02:03:09.529Z,1015.39
2023-04-22T02:04:09.622Z,1015.40
2023-04-22T02:05:09.841Z,1015.38
2023-04-22T02:06:09.982Z,1015.40
2023-04-22T02:07:10.157Z,1015.35
2023-04-22T02:08:10.337Z,1015.38
2023-04-22T02:09:10.505Z,1015.40
2023-04-22T02:10:10.693Z,1015.36
2023-04-22T02:11:10.844Z,1015.36
2023-04-22T02:12:11.025Z,1015.33
2023-04-22T02:13:11.186Z,1015.34
2023-04-22T02:14:11.363Z,1015.36
2023-04-22T02:15:11.528Z,1015.35
2023-04-22T02:16:11.757Z,1015.31
2023-04-22T02:17:11.880Z,1015.34
2023-04-22T02:18:12.051Z,1015.26
2023-04-22T02:19:12.231Z,1015.27
2023-04-22T02:20:12.521Z,1015.27
2023-04-22T02:21:12.579Z,1015.28
2023-04-22T02:22:12.750Z,1015.26
2023-04-22T02:23:12.912Z,1015.25
2023-04-22T02:24:13.102Z,1015.27
2023-04-22T02:25:13.261Z,1015.29
2023-04-22T02:26:13.437Z,1015.29
2023-04-22T02:27:13.608Z,1015.30
2023-04-22T02:28:13.787Z,1015.26
2023-04-22T02:29:13.961Z,1015.25
2023-04-22T02:30:14.146Z,1015.26
2023-04-22T02:31:14.358Z,1015.29
2023-04-22T02:32:14.480Z,1015.25
2023-04-22T02:33:14.658Z,1015.27
2023-04-22T02:34:14.829Z,1015.27
2023-04-22T02:35:14.990Z,1015.28
2023-04-22T02:36:15.228Z,1015.23
2023-04-22T02:37:15.333Z,1015.27
2023-04-22T02:38:15.516Z,1015.33
2023-04-22T02:39:15.663Z,1015.27
2023-04-22T02:40:15.831Z,1015.22
2023-04-22T02:41:15.995Z,1015.26
2023-04-22T02:42:16.157Z,1015.28
2023-04-22T02:43:16.342Z,1015.27
2023-04-22T02:44:16.507Z,1015.22
2023-04-22T02:45:16.703Z,1015.21
2023-04-22T02:46:16.912Z,1015.21
2023-04-22T02:47:17.042Z,1015.20
2023-04-22T02:48:17.218Z,1015.17
2023-04-22T02:49:17.390Z,1015.20
2023-04-22T02:50:17.577Z,1015.16
2023-04-22T02:51:17.752Z,1015.15
2023-04-22T02:52:17.910Z,1015.13
2023-04-22T02:53:18.087Z,1015.15
2023-04-22T02:54:18.278Z,1015.17
2023-04-22T02:55:18.459Z,1015.13
2023-04-22T02:56:18.610Z,1015.11
2023-04-22T02:57:18.778Z,1015.13
2023-04-22T02:58:18.959Z,1015.11
2023-04-22T02:59:19.127Z,1015.11
2023-04-22T03:00:19.311Z,1015.12
2023-04-22T03:01:19.571Z,1015.07
2023-04-22T03:02:19.729Z,1015.08
2023-04-22T03:03:20.020Z,1015.10
2023-04-22T03:04:20.061Z,1015.12
2023-04-22T03:05:20.211Z,1015.12
2023-04-22T03:06:20.339Z,1015.10
2023-04-22T03:07:20.527Z,1015.13
2023-04-22T03:08:20.711Z,1015.13
2023-04-22T03:09:20.867Z,1015.11
2023-04-22T03:10:21.030Z,1015.14
2023-04-22T03:11:21.201Z,1015.12
2023-04-22T03:12:21.389Z,1015.13
2023-04-22T03:13:21.535Z,1015.15
2023-04-22T03:14:21.700Z,1015.09
2023-04-22T03:15:22.046Z,1015.04
2023-04-22T03:16:22.147Z,1015.09
2023-04-22T03:17:22.321Z,1015.08
2023-04-22T03:18:22.415Z,1015.09
2023-04-22T03:19:22.539Z,1015.08
2023-04-22T03:20:22.721Z,1015.08
2023-04-22T03:21:22.890Z,1015.13
2023-04-22T03:22:23.052Z,1015.13
2023-04-22T03:23:23.247Z,1015.12
2023-04-22T03:24:23.449Z,1015.11
2023-04-22T03:25:23.572Z,1015.13
2023-04-22T03:26:23.743Z,1015.13
2023-04-22T03:27:23.933Z,1015.11
2023-04-22T03:28:24.103Z,1015.15
2023-04-22T03:29:24.268Z,1015.11
2023-04-22T03:30:24.442Z,1015.11
2023-04-22T03:31:24.666Z,1015.12
2023-04-22T03:32:24.922Z,1015.13
2023-04-22T03:33:24.999Z,1015.07
2023-04-22T03:34:25.180Z,1015.05
2023-04-22T03:35:25.362Z,1015.06
2023-04-22T03:36:25.510Z,1015.05
2023-04-22T03:37:25.667Z,1015.09
2023-04-22T03:38:25.867Z,1015.03
2023-04-22T03:39:26.021Z,1015.05
2023-04-22T03:40:26.204Z,1015.06
2023-04-22T03:41:26.399Z,1015.10
2023-04-22T03:42:26.621Z,1015.10
2023-04-22T03:43:26.740Z,1015.07
2023-04-22T03:44:26.926Z,1015.17
2023-04-22T03:45:27.149Z,1015.13
2023-04-22T03:46:27.348Z,1015.11
2023-04-22T03:47:27.492Z,1015.15
2023-04-22T03:48:27.657Z,1015.16
2023-04-22T03:49:27.854Z,1015.10
2023-04-22T03:50:28.008Z,1015.15
2023-04-22T03:51:28.183Z,1015.11
2023-04-22T03:52:28.373Z,1015.12
2023-04-22T03:53:28.518Z,1015.11
2023-04-22T03:54:28.695Z,1015.10
2023-04-22T03:55:28.843Z,1015.12
2023-04-22T03:56:29.016Z,1015.10
2023-04-22T03:57:29.199Z,1015.13
2023-04-22T03:58:29.343Z,1015.11
2023-04-22T03:59:29.494Z,1015.10
2023-04-22T04:00:29.680Z,1015.13
2023-04-22T04:01:29.834Z,1015.13
2023-04-22T04:02:30.123Z,1015.16
2023-04-22T04:03:31.193Z,1015.12
2023-04-22T04:04:30.763Z,1015.14
2023-04-22T04:05:30.750Z,1015.15
2023-04-22T04:06:30.667Z,1015.14
2023-04-22T04:07:30.852Z,1015.17
2023-04-22T04:08:31.031Z,1015.18
2023-04-22T04:09:31.218Z,1015.18
2023-04-22T04:10:31.387Z,1015.21
2023-04-22T04:11:31.596Z,1015.15
2023-04-22T04:12:31.725Z,1015.17
2023-04-22T04:13:31.859Z,1015.15
2023-04-22T04:14:32.048Z,1015.18
2023-04-22T04:15:32.279Z,1015.15
2023-04-22T04:16:32.438Z,1015.17
2023-04-22T04:17:32.619Z,1015.16
2023-04-22T04:18:32.738Z,1015.16
2023-04-22T04:19:32.911Z,1015.12
2023-04-22T04:20:33.085Z,1015.15
2023-04-22T04:21:33.271Z,1015.13
2023-04-22T04:22:33.483Z,1015.17
2023-04-22T04:23:33.644Z,1015.16
2023-04-22T04:24:33.831Z,1015.14
2023-04-22T04:25:34.019Z,1015.14
2023-04-22T04:26:34.185Z,1015.17
2023-04-22T04:27:34.358Z,1015.11
2023-04-22T04:28:34.547Z,1015.11
2023-04-22T04:29:34.713Z,1015.13
2023-04-22T04:30:34.892Z,1015.09
2023-04-22T04:31:35.126Z,1015.07
2023-04-22T04:32:35.305Z,1015.11
2023-04-22T04:33:35.429Z,1015.13
2023-04-22T04:34:35.604Z,1015.10
2023-04-22T04:35:35.805Z,1015.06
2023-04-22T04:36:35.967Z,1015.10
2023-04-22T04:37:36.145Z,1015.10
2023-04-22T04:38:36.295Z,1015.07
2023-04-22T04:39:36.478Z,1015.13
2023-04-22T04:40:36.637Z,1015.08
2023-04-22T04:41:36.809Z,1015.14
2023-04-22T04:42:37.002Z,1015.09
2023-04-22T04:43:37.169Z,1015.06
2023-04-22T04:44:37.348Z,1015.06
2023-04-22T04:45:37.555Z,1015.06
2023-04-22T04:46:37.888Z,1015.04
2023-04-22T04:47:37.925Z,1015.03
2023-04-22T04:48:38.041Z,1015.00
2023-04-22T04:49:38.569Z,1015.04
2023-04-22T04:50:38.385Z,1015.01
2023-04-22T04:51:38.565Z,1015.02
2023-04-22T04:52:38.754Z,1015.00
2023-04-22T04:53:38.923Z,1015.01
2023-04-22T04:54:39.108Z,1014.99
2023-04-22T04:55:39.301Z,1015.01
2023-04-22T04:56:39.484Z,1014.93
2023-04-22T04:57:39.674Z,1014.93
2023-04-22T04:58:39.826Z,1014.93
2023-04-22T04:59:40.391Z,1014.92
2023-04-22T05:00:40.188Z,1014.91
2023-04-22T05:01:40.486Z,1014.93
2023-04-22T05:02:40.690Z,1014.94
2023-04-22T05:03:40.833Z,1014.90
2023-04-22T05:04:40.995Z,1014.86
2023-04-22T05:05:41.049Z,1014.91
2023-04-22T05:06:41.229Z,1014.81
2023-04-22T05:07:41.427Z,1014.79
2023-04-22T05:08:41.617Z,1014.76
2023-04-22T05:09:42.146Z,1014.75
2023-04-22T05:10:41.957Z,1014.77
2023-04-22T05:11:42.158Z,1014.80
2023-04-22T05:12:42.319Z,1014.80
2023-04-22T05:13:42.472Z,1014.82
2023-04-22T05:14:42.630Z,1014.79
2023-04-22T05:15:42.803Z,1014.83
2023-04-22T05:16:43.049Z,1014.84
2023-04-22T05:17:43.216Z,1014.80
2023-04-22T05:18:43.325Z,1014.81
2023-04-22T05:19:43.507Z,1014.85
2023-04-22T05:20:43.687Z,1014.79
2023-04-22T05:21:43.840Z,1014.87
2023-04-22T05:22:44.016Z,1014.84
2023-04-22T05:23:44.186Z,1014.82
2023-04-22T05:24:44.354Z,1014.88
2023-04-22T05:25:44.520Z,1014.82
2023-04-22T05:26:44.694Z,1014.83
2023-04-22T05:27:44.868Z,1014.85
2023-04-22T05:28:45.036Z,1014.86
2023-04-22T05:29:45.197Z,1014.88
2023-04-22T05:30:45.403Z,1014.80
2023-04-22T05:31:45.622Z,1014.82
2023-04-22T05:32:45.822Z,1014.82
2023-04-22T05:33:45.905Z,1014.86
2023-04-22T05:34:46.061Z,1014.86
2023-04-22T05:35:46.261Z,1014.87
2023-04-22T05:36:46.415Z,1014.86
2023-04-22T05:37:46.585Z,1014.87
2023-04-22T05:38:46.777Z,1014.93
2023-04-22T05:39:46.912Z,1014.90
2023-04-22T05:40:47.091Z,1014.87
2023-04-22T05:41:47.386Z,1014.94
2023-04-22T05:42:47.415Z,1014.93
2023-04-22T05:43:47.581Z,1014.91
2023-04-22T05:44:47.739Z,1014.92
2023-04-22T05:45:48.010Z,1014.92
2023-04-22T05:46:48.088Z,1014.92
2023-04-22T05:47:48.331Z,1014.91
2023-04-22T05:48:48.434Z,1014.89
2023-04-22T05:49:48.609Z,1014.87
2023-04-22T05:50:48.798Z,1014.86
2023-04-22T05:51:48.973Z,1014.92
2023-04-22T05:52:49.142Z,1014.93
2023-04-22T05:53:49.292Z,1014.91
2023-04-22T05:54:49.455Z,1014.87
2023-04-22T05:55:49.625Z,1014.92
2023-04-22T05:56:49.802Z,1014.90
2023-04-22T05:57:49.981Z,1014.98
2023-04-22T05:58:50.169Z,1015.01
2023-04-22T05:59:50.306Z,1015.00
2023-04-22T06:00:50.484Z,1015.01
2023-04-22T06:01:50.673Z,1015.01
2023-04-22T06:02:50.961Z,1014.99
2023-04-22T06:03:51.280Z,1015.01
2023-04-22T06:04:51.441Z,1015.01
2023-04-22T06:05:51.392Z,1015.03
2023-04-22T06:06:51.528Z,1015.02
2023-04-22T06:07:51.708Z,1015.00
2023-04-22T06:08:51.902Z,1014.99
2023-04-22T06:09:59.446Z,1014.95
2023-04-22T06:10:53.245Z,1014.92
2023-04-22T06:11:52.422Z,1014.92
2023-04-22T06:12:52.585Z,1014.91
2023-04-22T06:13:52.754Z,1014.92
2023-04-22T06:14:52.923Z,1014.86
2023-04-22T06:15:53.122Z,1014.95
2023-04-22T06:16:53.331Z,1014.91
2023-04-22T06:17:53.478Z,1014.91
2023-04-22T06:18:53.606Z,1014.99
2023-04-22T06:19:54.857Z,1014.93
2023-04-22T06:20:53.976Z,1014.92
2023-04-22T06:21:54.127Z,1014.93
2023-04-22T06:22:54.302Z,1014.94
2023-04-22T06:23:54.475Z,1015.02
2023-04-22T06:24:54.642Z,1015.01
2023-04-22T06:25:54.807Z,1014.94
2023-04-22T06:26:54.995Z,1014.98
2023-04-22T06:27:55.172Z,1014.98
2023-04-22T06:28:55.335Z,1014.96
2023-04-22T06:29:55.515Z,1014.88
2023-04-22T06:30:55.672Z,1014.90
2023-04-22T06:31:55.892Z,1014.94
2023-04-22T06:32:56.021Z,1014.95
2023-04-22T06:33:56.164Z,1014.91
2023-04-22T06:34:56.321Z,1014.90
2023-04-22T06:35:56.522Z,1014.95
2023-04-22T06:36:56.680Z,1014.93
2023-04-22T06:37:56.859Z,1014.91
2023-04-22T06:38:57.028Z,1014.92
2023-04-22T06:39:57.210Z,1014.88
2023-04-22T06:40:57.373Z,1014.89
2023-04-22T06:41:57.574Z,1014.88
2023-04-22T06:42:57.726Z,1014.86
2023-04-22T06:43:57.895Z,1014.89
2023-04-22T06:44:58.062Z,1014.85
2023-04-22T06:45:58.228Z,1014.85
2023-04-22T06:46:58.547Z,1014.85
2023-04-22T06:47:58.650Z,1014.83
2023-04-22T06:48:58.742Z,1014.80
2023-04-22T06:49:58.916Z,1014.86
2023-04-22T06:50:59.076Z,1014.83
2023-04-22T06:51:59.269Z,1014.81
2023-04-22T06:52:59.397Z,1014.81
2023-04-22T06:53:59.579Z,1014.81
2023-04-22T06:54:59.738Z,1014.78
2023-04-22T06:55:59.902Z,1014.79
2023-04-22T06:57:00.123Z,1014.79
2023-04-22T06:58:00.231Z,1014.84
2023-04-22T06:59:00.396Z,1014.76
2023-04-22T07:00:00.561Z,1014.79
2023-04-22T07:01:00.736Z,1014.79
2023-04-22T07:02:00.952Z,1014.79
2023-04-22T07:03:01.132Z,1014.78
2023-04-22T07:04:01.322Z,1014.80
2023-04-22T07:05:01.478Z,1014.81
2023-04-22T07:06:01.644Z,1014.82
2023-04-22T07:07:01.817Z,1014.80
2023-04-22T07:08:02.028Z,1014.77
2023-04-22T07:09:02.151Z,1014.76
2023-04-22T07:10:02.336Z,1014.76
2023-04-22T07:11:02.526Z,1014.79
2023-04-22T07:12:02.717Z,1014.74
2023-04-22T07:13:02.878Z,1014.76
2023-04-22T07:14:03.077Z,1014.67
2023-04-22T07:15:03.258Z,1014.66
2023-04-22T07:16:03.449Z,1014.62
2023-04-22T07:17:03.566Z,1014.62
2023-04-22T07:18:03.721Z,1014.63
2023-04-22T07:19:03.882Z,1014.66
2023-04-22T07:20:04.069Z,1014.64
2023-04-22T07:21:04.257Z,1014.67
2023-04-22T07:22:04.392Z,1014.65
2023-04-22T07:23:04.572Z,1014.64
2023-04-22T07:24:04.774Z,1014.66
2023-04-22T07:25:04.912Z,1014.61
2023-04-22T07:26:05.138Z,1014.68
2023-04-22T07:27:05.271Z,1014.64
2023-04-22T07:28:05.475Z,1014.66
2023-04-22T07:29:05.628Z,1014.66
2023-04-22T07:30:05.812Z,1014.61
2023-04-22T07:31:05.983Z,1014.60
2023-04-22T07:32:06.266Z,1014.56
2023-04-22T07:33:06.341Z,1014.57
2023-04-22T07:34:06.515Z,1014.54
2023-04-22T07:35:06.669Z,1014.55
2023-04-22T07:36:06.841Z,1014.50
2023-04-22T07:37:07.010Z,1014.46
2023-04-22T07:38:08.142Z,1014.45
2023-04-22T07:39:07.321Z,1014.47
2023-04-22T07:40:07.496Z,1014.47
2023-04-22T07:41:07.646Z,1014.45
2023-04-22T07:42:07.825Z,1014.47
2023-04-22T07:43:08.022Z,1014.44
2023-04-22T07:44:08.210Z,1014.41
2023-04-22T07:45:08.394Z,1014.44
2023-04-22T07:46:08.550Z,1014.36
2023-04-22T07:47:08.761Z,1014.39
2023-04-22T07:48:08.888Z,1014.34
2023-04-22T07:49:09.069Z,1014.33
2023-04-22T07:50:09.268Z,1014.31
2023-04-22T07:51:09.429Z,1014.30
2023-04-22T07:52:09.616Z,1014.28
2023-04-22T07:53:09.781Z,1014.34
2023-04-22T07:54:09.972Z,1014.28
2023-04-22T07:55:10.156Z,1014.24
2023-04-22T07:56:10.350Z,1014.26
2023-04-22T07:57:10.503Z,1014.23
2023-04-22T07:58:10.672Z,1014.23
2023-04-22T07:59:10.850Z,1014.24
2023-04-22T08:00:11.036Z,1014.24
2023-04-22T08:01:11.214Z,1014.16
2023-04-22T08:02:11.466Z,1014.18
2023-04-22T08:03:11.722Z,1014.20
2023-04-22T08:04:11.965Z,1014.22
2023-04-22T08:05:11.974Z,1014.16
2023-04-22T08:06:12.109Z,1014.17
2023-04-22T08:07:31.748Z,1014.21
2023-04-22T08:08:13.464Z,1014.21
2023-04-22T08:09:12.608Z,1014.22
2023-04-22T08:10:12.793Z,1014.18
2023-04-22T08:11:12.979Z,1014.21
2023-04-22T08:12:13.134Z,1014.19
2023-04-22T08:13:13.300Z,1014.15
2023-04-22T08:14:13.478Z,1014.22
2023-04-22T08:15:13.628Z,1014.19
2023-04-22T08:16:13.948Z,1014.17
2023-04-22T08:17:14.005Z,1014.18
2023-04-22T08:18:14.193Z,1014.22
2023-04-22T08:19:14.393Z,1014.17
2023-04-22T08:20:14.557Z,1014.13
2023-04-22T08:21:14.710Z,1014.12
2023-04-22T08:22:14.891Z,1014.12
2023-04-22T08:23:15.074Z,1014.15
2023-04-22T08:24:15.268Z,1014.12
2023-04-22T08:25:15.422Z,1014.07
2023-04-22T08:26:15.607Z,1014.09
2023-04-22T08:27:15.774Z,1014.11
2023-04-22T08:28:15.930Z,1014.13
2023-04-22T08:29:16.102Z,1014.05
2023-04-22T08:30:16.266Z,1014.09
2023-04-22T08:31:16.453Z,1014.01
2023-04-22T08:32:16.612Z,1014.04
2023-04-22T08:33:16.758Z,1014.01
2023-04-22T08:34:16.910Z,1014.10
2023-04-22T08:35:17.078Z,1014.05
2023-04-22T08:36:17.271Z,1014.12
2023-04-22T08:37:17.401Z,1014.11
2023-04-22T08:38:17.609Z,1014.07
2023-04-22T08:39:17.736Z,1014.05
2023-04-22T08:40:17.924Z,1014.03
2023-04-22T08:41:18.088Z,1014.03
2023-04-22T08:42:18.258Z,1013.96
2023-04-22T08:43:18.427Z,1014.02
2023-04-22T08:44:18.572Z,1013.99
2023-04-22T08:45:18.794Z,1014.01
2023-04-22T08:46:18.996Z,1013.96
2023-04-22T08:47:19.110Z,1014.02
2023-04-22T08:48:19.296Z,1014.00
2023-04-22T08:49:19.507Z,1013.95
2023-04-22T08:50:19.649Z,1013.94
2023-04-22T08:51:19.806Z,1013.91
2023-04-22T08:52:20.009Z,1013.95
2023-04-22T08:53:20.686Z,1013.97
2023-04-22T08:54:20.360Z,1013.93
2023-04-22T08:55:20.561Z,1013.93
2023-04-22T08:56:20.734Z,1013.91
2023-04-22T08:57:20.889Z,1013.94
2023-04-22T08:58:21.064Z,1013.91
2023-04-22T08:59:21.222Z,1013.87
2023-04-22T09:00:21.429Z,1013.86
2023-04-22T09:01:21.612Z,1013.83
2023-04-22T09:02:21.793Z,1013.81
2023-04-22T09:03:21.986Z,1013.79
2023-04-22T09:04:22.232Z,1013.76
2023-04-22T09:05:22.254Z,1013.76
2023-04-22T09:06:22.452Z,1013.77
2023-04-22T09:07:22.624Z,1013.72
2023-04-22T09:08:22.771Z,1013.76
2023-04-22T09:09:22.921Z,1013.73
2023-04-22T09:10:23.115Z,1013.68
2023-04-22T09:11:23.318Z,1013.74
2023-04-22T09:12:23.477Z,1013.70
2023-04-22T09:13:23.705Z,1013.66
2023-04-22T09:14:23.832Z,1013.65
2023-04-22T09:15:23.984Z,1013.64
2023-04-22T09:16:24.197Z,1013.64
2023-04-22T09:17:24.341Z,1013.65
2023-04-22T09:18:24.537Z,1013.65
2023-04-22T09:19:24.698Z,1013.64
2023-04-22T09:20:24.898Z,1013.58
2023-04-22T09:21:25.069Z,1013.60
2023-04-22T09:22:25.221Z,1013.60
2023-04-22T09:23:25.388Z,1013.59
2023-04-22T09:24:25.581Z,1013.62
2023-04-22T09:25:25.765Z,1013.61
2023-04-22T09:26:25.928Z,1013.55
2023-04-22T09:27:26.085Z,1013.54
2023-04-22T09:28:26.311Z,1013.56
2023-04-22T09:29:26.446Z,1013.50
2023-04-22T09:30:26.641Z,1013.50
2023-04-22T09:31:26.862Z,1013.52
2023-04-22T09:32:27.010Z,1013.46
2023-04-22T09:33:27.179Z,1013.41
2023-04-22T09:34:27.338Z,1013.43
2023-04-22T09:35:27.497Z,1013.41
2023-04-22T09:36:27.666Z,1013.40
2023-04-22T09:37:36.098Z,1013.38
2023-04-22T09:38:29.002Z,1013.39
2023-04-22T09:39:28.170Z,1013.45
2023-04-22T09:40:28.350Z,1013.42
2023-04-22T09:41:28.514Z,1013.37
2023-04-22T09:42:28.673Z,1013.41
2023-04-22T09:43:28.841Z,1013.34
2023-04-22T09:44:28.990Z,1013.30
2023-04-22T09:45:29.193Z,1013.33
2023-04-22T09:46:29.468Z,1013.37
2023-04-22T09:47:29.566Z,1013.33
2023-04-22T09:48:29.704Z,1013.27
2023-04-22T09:49:29.854Z,1013.25
2023-04-22T09:50:30.057Z,1013.21
2023-04-22T09:51:30.224Z,1013.23
2023-04-22T09:52:30.365Z,1013.13
2023-04-22T09:53:30.522Z,1013.17
2023-04-22T09:54:30.701Z,1013.12
2023-04-22T09:55:30.872Z,1013.13
2023-04-22T09:56:31.047Z,1013.13
2023-04-22T09:57:31.226Z,1013.11
2023-04-22T09:58:31.402Z,1013.11
2023-04-22T09:59:31.569Z,1013.05
2023-04-22T10:00:31.817Z,1013.01
2023-04-22T10:01:31.932Z,1013.05
2023-04-22T10:02:32.167Z,1012.97
2023-04-22T10:03:32.340Z,1012.91
2023-04-22T10:04:32.504Z,1012.94
2023-04-22T10:05:32.634Z,1012.93
2023-04-22T10:06:32.806Z,1012.88
2023-04-22T10:07:32.991Z,1012.90
2023-04-22T10:08:33.180Z,1012.92
2023-04-22T10:09:33.342Z,1012.91
2023-04-22T10:10:33.536Z,1012.95
2023-04-22T10:11:33.696Z,1012.96
2023-04-22T10:12:36.058Z,1013.05
2023-04-22T10:13:34.021Z,1012.94
2023-04-22T10:14:34.207Z,1012.99
2023-04-22T10:15:34.404Z,1013.01
2023-04-22T10:16:34.718Z,1012.84
2023-04-22T10:17:34.794Z,1012.81
2023-04-22T10:18:34.950Z,1012.86
2023-04-22T10:19:35.161Z,1012.83
2023-04-22T10:20:35.320Z,1012.79
2023-04-22T10:21:35.469Z,1012.81
2023-04-22T10:22:35.655Z,1012.94
2023-04-22T10:23:35.825Z,1012.73
2023-04-22T10:24:36.018Z,1012.83
2023-04-22T10:25:36.156Z,1012.74
2023-04-22T10:26:36.331Z,1012.79
2023-04-22T10:27:36.513Z,1012.89
2023-04-22T10:28:36.674Z,1012.84
2023-04-22T10:29:36.878Z,1012.76
2023-04-22T10:30:37.052Z,1012.78
2023-04-22T10:31:37.209Z,1012.75
2023-04-22T10:32:37.429Z,1012.78
2023-04-22T10:33:37.557Z,1012.75
2023-04-22T10:34:37.746Z,1012.75
2023-04-22T10:35:37.946Z,1012.80
2023-04-22T10:36:38.085Z,1012.68
2023-04-22T10:37:38.277Z,1012.61
2023-04-22T10:38:38.459Z,1012.75
2023-04-22T10:39:38.972Z,1012.77
2023-04-22T10:40:38.815Z,1012.76
2023-04-22T10:41:39.010Z,1012.76
2023-04-22T10:42:39.158Z,1012.66
2023-04-22T10:43:39.347Z,1012.77
2023-04-22T10:44:39.556Z,1012.67
2023-04-22T10:45:39.730Z,1012.79
2023-04-22T10:46:40.178Z,1012.75
2023-04-22T10:47:40.106Z,1012.72
2023-04-22T10:48:40.214Z,1012.77
2023-04-22T10:49:40.514Z,1012.73
2023-04-22T10:50:40.568Z,1012.71
2023-04-22T10:51:40.833Z,1012.67
2023-04-22T10:52:40.899Z,1012.67
2023-04-22T10:53:41.069Z,1012.79
2023-04-22T10:54:41.213Z,1012.73
2023-04-22T10:55:41.415Z,1012.76
2023-04-22T10:56:48.453Z,1012.67
2023-04-22T10:57:42.748Z,1012.63
2023-04-22T10:58:41.916Z,1012.63
2023-04-22T10:59:42.089Z,1012.59
2023-04-22T11:00:53.062Z,1012.57
2023-04-22T11:01:43.437Z,1012.60
2023-04-22T11:02:42.732Z,1012.51
2023-04-22T11:03:42.835Z,1012.60
2023-04-22T11:04:42.930Z,1012.53
2023-04-22T11:05:43.119Z,1012.51
2023-04-22T11:06:43.264Z,1012.52
2023-04-22T11:07:43.463Z,1012.47
2023-04-22T11:08:43.613Z,1012.50
2023-04-22T11:09:43.799Z,1012.43
2023-04-22T11:10:44.843Z,1012.41
2023-04-22T11:11:44.166Z,1012.41
2023-04-22T11:12:44.314Z,1012.41
2023-04-22T11:13:44.503Z,1012.44
2023-04-22T11:14:44.646Z,1012.40
2023-04-22T11:15:44.856Z,1012.38
2023-04-22T11:16:45.100Z,1012.37
2023-04-22T11:17:45.208Z,1012.32
2023-04-22T11:18:45.340Z,1012.34
2023-04-22T11:19:45.523Z,1012.38
2023-04-22T11:20:45.709Z,1012.37
2023-04-22T11:21:45.869Z,1012.33
2023-04-22T11:22:46.047Z,1012.52
2023-04-22T11:23:46.213Z,1012.42
2023-04-22T11:24:46.400Z,1012.46
2023-04-22T11:25:46.613Z,1012.41
2023-04-22T11:26:46.758Z,1012.45
2023-04-22T11:27:46.928Z,1012.44
2023-04-22T11:28:47.126Z,1012.37
2023-04-22T11:29:47.306Z,1012.44
2023-04-22T11:30:47.467Z,1012.47
2023-04-22T11:31:47.728Z,1012.38
2023-04-22T11:32:47.902Z,1012.43
2023-04-22T11:33:50.183Z,1012.35
2023-04-22T11:34:48.185Z,1012.32
2023-04-22T11:35:48.399Z,1012.32
2023-04-22T11:36:48.550Z,1012.32
2023-04-22T11:37:48.709Z,1012.33
2023-04-22T11:38:48.876Z,1012.35
2023-04-22T11:40:10.254Z,1012.30
2023-04-22T11:40:50.257Z,1012.28
2023-04-22T11:41:49.410Z,1012.30
2023-04-22T11:42:49.587Z,1012.25
2023-04-22T11:43:49.755Z,1012.32
2023-04-22T11:44:49.929Z,1012.23
2023-04-22T11:45:50.168Z,1012.25
2023-04-22T11:46:50.301Z,1012.31
2023-04-22T11:47:50.533Z,1012.23
2023-04-22T11:48:50.643Z,1012.20
2023-04-22T11:49:50.810Z,1012.16
2023-04-22T11:50:50.980Z,1012.19
2023-04-22T11:51:51.136Z,1012.22
2023-04-22T11:52:51.286Z,1012.18
2023-04-22T11:53:51.469Z,1012.17
2023-04-22T11:54:51.676Z,1012.12
2023-04-22T11:55:51.823Z,1012.19
2023-04-22T11:56:52.009Z,1012.14
2023-04-22T11:57:52.196Z,1012.16
2023-04-22T11:58:52.370Z,1012.19
2023-04-22T11:59:52.544Z,1012.16
2023-04-22T12:00:52.686Z,1012.18
2023-04-22T12:01:52.889Z,1012.15
2023-04-22T12:02:53.171Z,1012.19
2023-04-22T12:03:53.324Z,1012.15
2023-04-22T12:04:53.408Z,1012.15
2023-04-22T12:05:53.555Z,1012.15
2023-04-22T12:06:53.733Z,1012.17
2023-04-22T12:07:53.876Z,1012.10